Time;durP1;ratioP1;P1;durP2;ratioP2;P2;SDS_P1;SDS_P2;PMS_P1;PMS_P2;Temp;Humidity;BMP_temperature;BMP_pressure;BME280_temperature;BME280_humidity;BME280_pressure;Samples;Min_cycle;Max_cycle;Signal;HPM_P1;HPM_P2
2022/08/03 00:00:52;;;;;;;4.22;2.80;;;;;19.50;96498.00;;;;8399050;28;20704;-74
2022/08/03 00:04:55;;;;;;;7.25;3.08;;;;;19.40;96497.00;;;;8383671;28;20220;-73
2022/08/03 00:09:00;;;;;;;3.50;2.65;;;;;19.40;96489.00;;;;8398028;28;20314;-75
2022/08/03 00:13:03;;;;;;;4.32;3.10;;;;;19.30;96484.00;;;;8377095;28;20227;-74
2022/08/03 00:17:06;;;;;;;2.92;2.72;;;;;19.20;96495.00;;;;8383531;28;20224;-76
2022/08/03 00:21:10;;;;;;;2.78;2.58;;;;;19.20;96490.00;;;;8399050;28;20219;-73
2022/08/03 00:25:14;;;;;;;3.28;2.90;;;;;19.20;96489.00;;;;8384872;28;20311;-75
2022/08/03 00:29:18;;;;;;;4.05;3.10;;;;;19.10;96488.00;;;;8340915;28;20235;-74
2022/08/03 00:33:21;;;;;;;3.28;2.88;;;;;19.00;96487.00;;;;8377145;28;20235;-74
2022/08/03 00:37:24;;;;;;;3.40;3.10;;;;;18.90;96487.00;;;;8380971;28;20227;-74
2022/08/03 00:41:45;;;;;;;5.05;3.17;;;;;18.80;96473.00;;;;8386438;28;20289;-75
2022/08/03 00:45:48;;;;;;;3.47;3.00;;;;;18.80;96484.00;;;;8383636;28;20595;-74
2022/08/03 00:49:52;;;;;;;3.47;2.88;;;;;18.70;96488.00;;;;8379531;28;20236;-74
2022/08/03 00:53:56;;;;;;;2.70;2.50;;;;;18.70;96492.00;;;;8374451;28;20228;-74
2022/08/03 00:58:05;;;;;;;4.20;3.20;;;;;18.60;96490.00;;;;8379879;28;20220;-75
2022/08/03 01:02:08;;;;;;;5.75;2.83;;;;;18.50;96497.00;;;;8364280;28;20652;-75
2022/08/03 01:06:18;;;;;;;4.82;3.20;;;;;18.40;96491.00;;;;8377009;28;20311;-74
2022/08/03 01:10:28;;;;;;;4.38;3.30;;;;;18.40;96496.00;;;;8374580;28;20228;-75
2022/08/03 01:14:42;;;;;;;3.97;2.97;;;;;18.30;96497.00;;;;8380986;28;20254;-73
2022/08/03 01:18:55;;;;;;;6.60;3.50;;;;;18.20;96493.00;;;;8381439;28;20232;-74
2022/08/03 01:23:24;;;;;;;3.60;3.30;;;;;18.20;96489.00;;;;8385407;28;20234;-75
2022/08/03 01:27:46;;;;;;;5.85;3.60;;;;;18.10;96493.00;;;;8379800;28;20920;-76
2022/08/03 01:31:57;;;;;;;8.95;4.53;;;;;18.10;96495.00;;;;8381751;28;20616;-75
2022/08/03 01:36:24;;;;;;;8.30;3.45;;;;;18.10;96491.00;;;;8375270;28;20675;-75
2022/08/03 01:40:29;;;;;;;4.93;3.33;;;;;18.10;96480.00;;;;8380284;28;20224;-75
2022/08/03 01:44:36;;;;;;;3.17;2.97;;;;;18.10;96486.00;;;;8381309;28;20251;-75
2022/08/03 01:48:43;;;;;;;5.35;3.03;;;;;17.90;96479.00;;;;8373759;28;20228;-75
2022/08/03 01:52:47;;;;;;;5.43;3.45;;;;;17.90;96485.00;;;;8380334;28;20226;-76
2022/08/03 01:56:52;;;;;;;5.07;3.28;;;;;17.80;96476.00;;;;8376633;28;20315;-75
2022/08/03 02:00:59;;;;;;;5.88;3.60;;;;;17.70;96483.00;;;;8379225;28;20228;-74
2022/08/03 02:05:09;;;;;;;3.97;3.42;;;;;17.70;96471.00;;;;8373732;28;20310;-75
2022/08/03 02:09:14;;;;;;;6.78;3.20;;;;;17.80;96468.00;;;;8376988;28;20303;-75
2022/08/03 02:13:21;;;;;;;7.63;4.30;;;;;17.70;96472.00;;;;8377824;28;20901;-73
2022/08/03 02:17:26;;;;;;;5.57;3.58;;;;;17.70;96461.00;;;;8387768;28;20230;-73
2022/08/03 02:21:45;;;;;;;4.90;3.47;;;;;17.70;96467.00;;;;8381558;28;20241;-73
2022/08/03 02:26:05;;;;;;;3.88;3.50;;;;;17.70;96462.00;;;;8378416;28;20735;-73
2022/08/03 02:30:10;;;;;;;4.07;3.60;;;;;17.70;96458.00;;;;8374458;28;20234;-73
2022/08/03 02:34:15;;;;;;;3.97;3.58;;;;;17.60;96466.00;;;;8380502;28;20232;-73
2022/08/03 02:38:23;;;;;;;7.00;3.53;;;;;17.60;96454.00;;;;8375738;28;20232;-73
2022/08/03 02:42:28;;;;;;;4.57;3.63;;;;;17.50;96462.00;;;;8376904;28;20236;-73
2022/08/03 02:46:34;;;;;;;4.78;3.70;;;;;17.50;96463.00;;;;8347197;28;20316;-72
2022/08/03 02:50:39;;;;;;;4.03;3.53;;;;;17.40;96461.00;;;;8371673;28;20220;-75
2022/08/03 02:54:46;;;;;;;4.20;3.80;;;;;17.30;96464.00;;;;8377883;28;20236;-75
2022/08/03 02:58:50;;;;;;;3.60;3.30;;;;;17.20;96457.00;;;;8390519;28;20288;-74
2022/08/03 03:02:54;;;;;;;4.10;3.33;;;;;17.20;96462.00;;;;8374187;22;20231;-75
2022/08/03 03:06:58;;;;;;;3.53;3.25;;;;;17.10;96469.00;;;;8362335;28;20600;-75
2022/08/03 03:11:06;;;;;;;4.55;3.63;;;;;17.10;96464.00;;;;8361146;28;20216;-73
2022/08/03 03:15:10;;;;;;;3.85;3.45;;;;;17.10;96462.00;;;;8348030;28;20653;-75
2022/08/03 03:19:16;;;;;;;5.47;3.88;;;;;17.00;96460.00;;;;8344388;28;20227;-74
2022/08/03 03:23:21;;;;;;;6.38;4.43;;;;;17.00;96461.00;;;;8342437;28;20648;-75
2022/08/03 03:27:26;;;;;;;4.03;3.45;;;;;16.90;96463.00;;;;8361004;28;20748;-74
2022/08/03 03:31:32;;;;;;;4.10;3.70;;;;;16.90;96461.00;;;;8372098;28;20326;-73
2022/08/03 03:35:35;;;;;;;7.05;4.30;;;;;16.90;96465.00;;;;8372446;28;20298;-75
2022/08/03 03:39:41;;;;;;;5.88;3.67;;;;;16.90;96468.00;;;;8374037;28;20232;-76
2022/08/03 03:43:46;;;;;;;4.53;4.03;;;;;16.90;96466.00;;;;8371269;28;20231;-74
2022/08/03 03:47:51;;;;;;;5.72;4.07;;;;;16.80;96466.00;;;;8368222;28;20738;-75
2022/08/03 03:51:55;;;;;;;4.07;3.67;;;;;16.70;96471.00;;;;8374917;28;20231;-74
2022/08/03 03:55:58;;;;;;;5.68;4.47;;;;;16.70;96472.00;;;;8367421;28;20235;-75
2022/08/03 04:00:08;;;;;;;6.28;3.65;;;;;16.70;96473.00;;;;8384094;28;20281;-72
2022/08/03 04:12:56;;;;;;;5.15;3.60;;;;;16.80;96475.00;;;;8334753;28;20247;-73
2022/08/03 04:17:03;;;;;;;4.32;3.92;;;;;16.80;96484.00;;;;8344933;28;20562;-73
2022/08/03 04:21:16;;;;;;;5.53;3.83;;;;;16.80;96477.00;;;;8332945;28;20307;-73
2022/08/03 04:25:24;;;;;;;9.50;3.70;;;;;16.90;96487.00;;;;8325418;28;20738;-76
2022/08/03 04:29:31;;;;;;;4.40;3.47;;;;;16.90;96490.00;;;;8343619;28;20228;-75
2022/08/03 04:33:44;;;;;;;6.95;3.35;;;;;17.00;96485.00;;;;8346394;28;21006;-75
2022/08/03 04:37:50;;;;;;;4.63;3.72;;;;;17.10;96483.00;;;;8348613;28;20586;-76
2022/08/03 04:41:55;;;;;;;4.35;3.63;;;;;17.20;96495.00;;;;8344259;28;20303;-73
2022/08/03 04:46:12;;;;;;;5.68;3.42;;;;;17.30;96500.00;;;;8345664;28;20233;-74
2022/08/03 04:50:17;;;;;;;7.68;3.30;;;;;17.40;96507.00;;;;8345249;28;20235;-73
2022/08/03 04:54:23;;;;;;;12.15;3.70;;;;;17.50;96500.00;;;;8341315;28;20225;-73
2022/08/03 04:58:27;;;;;;;4.60;3.72;;;;;17.70;96513.00;;;;8343498;28;20229;-76
2022/08/03 05:02:31;;;;;;;4.63;3.63;;;;;17.90;96511.00;;;;8345832;28;20255;-72
2022/08/03 05:06:36;;;;;;;6.55;4.18;;;;;18.10;96517.00;;;;8345133;28;20689;-75
2022/08/03 05:10:49;;;;;;;5.75;4.63;;;;;18.50;96513.00;;;;8341576;28;20227;-78
2022/08/03 05:14:53;;;;;;;5.93;4.20;;;;;18.90;96510.00;;;;8326462;28;20232;-72
2022/08/03 05:18:56;;;;;;;6.47;3.97;;;;;19.30;96513.00;;;;8339886;28;20234;-75
2022/08/03 05:23:02;;;;;;;4.32;3.92;;;;;19.70;96515.00;;;;8340492;28;20312;-75
2022/08/03 05:27:05;;;;;;;4.60;4.10;;;;;20.10;96519.00;;;;8342065;28;20977;-72
2022/08/03 05:31:09;;;;;;;6.05;3.85;;;;;20.50;96515.00;;;;8339989;28;20223;-77
2022/08/03 05:35:12;;;;;;;3.72;3.42;;;;;20.80;96511.00;;;;8343338;28;20319;-79
2022/08/03 05:39:37;;;;;;;4.20;3.90;;;;;21.20;96518.00;;;;8344274;28;20220;-78
2022/08/03 05:43:40;;;;;;;4.65;3.83;;;;;21.50;96511.00;;;;8342748;28;20307;-72
2022/08/03 05:47:44;;;;;;;4.65;3.80;;;;;21.90;96519.00;;;;8346800;28;20252;-72
2022/08/03 05:51:55;;;;;;;4.30;3.90;;;;;22.20;96522.00;;;;8334346;28;20236;-73
2022/08/03 05:56:24;;;;;;;4.70;3.92;;;;;22.60;96531.00;;;;8339529;28;20605;-71
2022/08/03 06:00:27;;;;;;;3.53;3.22;;;;;22.90;96526.00;;;;8334314;28;20594;-75
2022/08/03 06:04:31;;;;;;;4.38;3.85;;;;;23.20;96528.00;;;;8338985;28;20228;-72
2022/08/03 06:08:34;;;;;;;4.88;3.38;;;;;23.40;96533.00;;;;8343953;28;20719;-72
2022/08/03 06:12:40;;;;;;;4.68;3.55;;;;;23.70;96537.00;;;;8339895;28;20319;-72
2022/08/03 06:16:43;;;;;;;5.05;3.40;;;;;24.00;96540.00;;;;8354256;28;20601;-72
2022/08/03 06:20:46;;;;;;;5.05;3.55;;;;;24.20;96542.00;;;;8344462;28;20948;-73
2022/08/03 06:24:52;;;;;;;7.72;3.70;;;;;24.50;96543.00;;;;8342814;28;20231;-72
2022/08/03 06:28:58;;;;;;;3.90;3.33;;;;;24.70;96540.00;;;;8342625;28;20220;-72
2022/08/03 06:33:01;;;;;;;5.07;2.97;;;;;25.00;96540.00;;;;8341530;28;20225;-73
2022/08/03 06:37:04;;;;;;;5.25;2.92;;;;;25.30;96535.00;;;;8338923;28;20580;-72
2022/08/03 06:41:07;;;;;;;3.55;3.25;;;;;25.70;96541.00;;;;8334702;28;20221;-71
2022/08/03 06:45:12;;;;;;;6.38;3.15;;;;;26.20;96546.00;;;;8330416;28;20234;-71
2022/08/03 06:49:16;;;;;;;4.47;3.00;;;;;26.70;96556.00;;;;8334986;28;20224;-70
2022/08/03 06:53:19;;;;;;;4.30;3.17;;;;;27.20;96552.00;;;;8341404;28;20232;-69
2022/08/03 06:57:23;;;;;;;3.00;2.80;;;;;27.50;96547.00;;;;8339025;28;20263;-69
2022/08/03 07:01:28;;;;;;;3.50;2.72;;;;;28.00;96552.00;;;;8344162;28;20258;-72
2022/08/03 07:05:33;;;;;;;2.63;2.47;;;;;28.40;96552.00;;;;8343606;28;20255;-71
2022/08/03 07:09:37;;;;;;;3.35;2.40;;;;;28.80;96551.00;;;;8346798;28;20226;-73
2022/08/03 07:13:43;;;;;;;3.10;2.60;;;;;29.10;96554.00;;;;8340972;28;20697;-72
2022/08/03 07:17:48;;;;;;;4.72;2.20;;;;;29.60;96557.00;;;;8343459;28;20239;-72
2022/08/03 07:21:51;;;;;;;4.68;2.30;;;;;30.30;96556.00;;;;8345896;28;20303;-72
2022/08/03 07:25:55;;;;;;;3.55;2.20;;;;;30.80;96555.00;;;;8339567;28;20220;-71
2022/08/03 07:29:59;;;;;;;4.93;2.50;;;;;31.40;96555.00;;;;8344196;28;20230;-72
2022/08/03 07:34:03;;;;;;;4.50;2.35;;;;;31.80;96554.00;;;;8348674;28;20247;-71
2022/08/03 07:38:06;;;;;;;2.20;2.10;;;;;32.10;96557.00;;;;8348584;28;20228;-71
2022/08/03 07:42:10;;;;;;;4.47;2.30;;;;;32.40;96560.00;;;;8343401;28;20225;-71
2022/08/03 07:46:13;;;;;;;3.58;2.10;;;;;33.00;96554.00;;;;8339348;28;20248;-72
2022/08/03 07:50:18;;;;;;;9.18;2.42;;;;;33.30;96550.00;;;;8335003;28;20225;-75
2022/08/03 07:54:21;;;;;;;1.98;1.60;;;;;33.70;96560.00;;;;8326332;28;20224;-72
2022/08/03 07:58:24;;;;;;;3.40;2.05;;;;;33.90;96557.00;;;;8346992;28;20918;-78
2022/08/03 08:02:29;;;;;;;2.13;1.75;;;;;34.20;96556.00;;;;8350710;28;20221;-73
2022/08/03 08:06:34;;;;;;;2.10;1.80;;;;;34.70;96553.00;;;;8340775;28;20621;-78
2022/08/03 08:10:37;;;;;;;4.40;2.00;;;;;35.00;96559.00;;;;8336905;28;20234;-76
2022/08/03 08:14:41;;;;;;;4.15;1.90;;;;;35.40;96557.00;;;;8342423;28;20316;-77
2022/08/03 08:18:44;;;;;;;1.92;1.83;;;;;35.50;96552.00;;;;8342453;28;20246;-75
2022/08/03 08:22:49;;;;;;;2.67;1.52;;;;;35.80;96548.00;;;;8335147;28;20223;-75
2022/08/03 08:26:54;;;;;;;1.88;1.77;;;;;35.80;96553.00;;;;8329657;28;20229;-75
2022/08/03 08:30:57;;;;;;;3.90;1.77;;;;;35.50;96550.00;;;;8340149;28;20224;-76
2022/08/03 08:35:01;;;;;;;1.70;1.60;;;;;35.50;96551.00;;;;8338247;28;20236;-77
2022/08/03 08:39:05;;;;;;;1.83;1.60;;;;;35.70;96551.00;;;;8333602;28;20337;-77
2022/08/03 08:43:09;;;;;;;1.30;1.30;;;;;35.90;96545.00;;;;8344889;28;20227;-76
2022/08/03 08:47:13;;;;;;;5.03;1.30;;;;;36.00;96553.00;;;;8344778;28;20240;-77
2022/08/03 08:51:18;;;;;;;4.78;1.50;;;;;36.10;96560.00;;;;8347548;28;20239;-77
2022/08/03 08:55:23;;;;;;;1.60;1.50;;;;;36.30;96558.00;;;;8338237;28;20767;-76
2022/08/03 08:59:27;;;;;;;1.70;1.60;;;;;37.00;96546.00;;;;8345494;28;20316;-76
2022/08/03 09:03:52;;;;;;;1.48;1.45;;;;;37.10;96550.00;;;;8344825;28;23733;-74
2022/08/03 09:07:55;;;;;;;1.70;1.60;;;;;37.20;96549.00;;;;8341683;28;20752;-76
2022/08/03 09:12:00;;;;;;;2.55;1.90;;;;;37.50;96554.00;;;;8340673;28;20244;-76
2022/08/03 09:16:23;;;;;;;2.30;1.50;;;;;38.00;96554.00;;;;8338214;28;20585;-75
2022/08/03 09:20:28;;;;;;;1.40;1.40;;;;;38.10;96544.00;;;;8342814;28;20220;-78
2022/08/03 09:24:32;;;;;;;1.30;1.30;;;;;37.80;96548.00;;;;8342748;28;20307;-79
2022/08/03 09:28:45;;;;;;;3.13;1.27;;;;;37.70;96541.00;;;;8343212;28;20594;-71
2022/08/03 09:33:07;;;;;;;2.58;1.30;;;;;38.10;96545.00;;;;8343791;28;20246;-75
2022/08/03 09:37:14;;;;;;;6.80;1.42;;;;;38.30;96538.00;;;;8330721;28;20355;-73
2022/08/03 09:41:18;;;;;;;2.17;1.45;;;;;38.50;96537.00;;;;8347594;28;20220;-71
2022/08/03 09:45:28;;;;;;;1.20;1.20;;;;;38.80;96544.00;;;;8327660;28;20236;-72
2022/08/03 09:49:32;;;;;;;1.40;1.40;;;;;38.90;96541.00;;;;8336056;28;20231;-71
2022/08/03 09:53:43;;;;;;;2.33;1.52;;;;;39.50;96540.00;;;;8340544;28;20228;-74
2022/08/03 09:58:08;;;;;;;2.00;1.80;;;;;39.70;96536.00;;;;8336176;28;20227;-78
2022/08/03 10:02:23;;;;;;;2.65;1.40;;;;;39.70;96533.00;;;;8337276;28;20225;-71
2022/08/03 10:06:26;;;;;;;1.50;1.38;;;;;39.70;96536.00;;;;8327067;28;20319;-70
2022/08/03 10:10:42;;;;;;;1.20;1.20;;;;;40.20;96535.00;;;;8323820;28;20335;-70
2022/08/03 10:14:47;;;;;;;1.73;1.73;;;;;40.50;96527.00;;;;8343172;28;20228;-73
2022/08/03 10:18:51;;;;;;;2.60;1.50;;;;;39.50;96527.00;;;;8333303;28;20231;-74
2022/08/03 10:22:55;;;;;;;1.30;1.23;;;;;39.50;96525.00;;;;8338336;28;20848;-74
2022/08/03 10:27:02;;;;;;;1.38;1.30;;;;;39.80;96517.00;;;;8342863;28;20236;-72
2022/08/03 10:31:08;;;;;;;2.05;1.60;;;;;39.60;96514.00;;;;8342268;28;20308;-71
2022/08/03 10:35:17;;;;;;;1.70;1.60;;;;;39.80;96510.00;;;;8343224;28;20235;-74
2022/08/03 10:39:27;;;;;;;3.20;1.63;;;;;40.30;96517.00;;;;8344682;28;20275;-72
2022/08/03 10:43:37;;;;;;;1.60;1.50;;;;;40.10;96511.00;;;;8343150;28;20236;-74
2022/08/03 10:47:41;;;;;;;1.55;1.45;;;;;40.60;96510.00;;;;8340441;28;20312;-72
2022/08/03 10:51:47;;;;;;;2.70;1.40;;;;;41.10;96511.00;;;;8335017;28;20339;-72
2022/08/03 11:00:23;;;;;;;2.58;1.40;;;;;40.90;96509.00;;;;8347744;28;20228;-77
2022/08/03 11:04:28;;;;;;;1.73;1.60;;;;;40.20;96506.00;;;;8329574;28;20341;-72
2022/08/03 11:08:34;;;;;;;1.60;1.58;;;;;40.00;96489.00;;;;8333567;28;20643;-71
2022/08/03 11:12:38;;;;;;;13.50;1.83;;;;;40.40;96493.00;;;;8333372;28;20238;-72
2022/08/03 11:16:44;;;;;;;4.53;1.52;;;;;40.80;96497.00;;;;8334031;28;20379;-77
2022/08/03 11:20:48;;;;;;;1.92;1.58;;;;;41.00;96492.00;;;;8332296;28;20222;-76
2022/08/03 11:25:03;;;;;;;1.80;1.70;;;;;40.70;96493.00;;;;8337517;28;20304;-75
2022/08/03 11:29:27;;;;;;;5.97;1.67;;;;;40.00;96477.00;;;;8336513;28;20236;-73
2022/08/03 11:33:31;;;;;;;1.85;1.42;;;;;40.20;96492.00;;;;8333646;28;20666;-75
2022/08/03 11:37:34;;;;;;;2.25;1.58;;;;;40.60;96489.00;;;;8338553;28;20254;-73
2022/08/03 11:41:39;;;;;;;2.67;1.70;;;;;41.10;96472.00;;;;8336223;28;20308;-71
2022/08/03 11:45:57;;;;;;;2.83;1.50;;;;;41.50;96480.00;;;;8345427;28;20731;-72
2022/08/03 11:50:01;;;;;;;1.50;1.50;;;;;41.80;96485.00;;;;8346812;28;20282;-71
2022/08/03 11:54:06;;;;;;;3.35;1.55;;;;;42.00;96483.00;;;;8329813;28;20661;-71
2022/08/03 11:58:15;;;;;;;1.92;1.83;;;;;42.20;96479.00;;;;8346237;28;20676;-71
2022/08/03 12:02:39;;;;;;;2.17;1.50;;;;;42.40;96471.00;;;;8347252;28;20656;-76
2022/08/03 12:06:59;;;;;;;2.53;1.45;;;;;42.30;96473.00;;;;8347910;28;20230;-78
2022/08/03 12:11:05;;;;;;;1.48;1.35;;;;;42.50;96473.00;;;;8338562;28;20316;-76
2022/08/03 12:15:10;;;;;;;2.05;1.40;;;;;42.70;96463.00;;;;8340489;28;20228;-75
2022/08/03 12:19:14;;;;;;;2.90;1.60;;;;;42.60;96467.00;;;;8341583;28;20231;-78
2022/08/03 12:23:18;;;;;;;1.80;1.70;;;;;41.90;96457.00;;;;8340640;28;20228;-76
2022/08/03 12:27:26;;;;;;;1.60;1.50;;;;;41.10;96461.00;;;;8347965;28;20259;-77
2022/08/03 12:31:31;;;;;;;2.08;1.40;;;;;40.40;96449.00;;;;8344637;28;20593;-76
2022/08/03 12:35:34;;;;;;;3.63;1.67;;;;;39.60;96461.00;;;;8346413;28;20239;-76
2022/08/03 12:39:37;;;;;;;1.77;1.65;;;;;38.00;96452.00;;;;8346805;28;20235;-75
2022/08/03 12:44:02;;;;;;;4.00;1.70;;;;;37.00;96448.00;;;;8345718;28;20234;-75
2022/08/03 12:48:10;;;;;;;1.60;1.60;;;;;37.00;96450.00;;;;8343598;28;20237;-75
2022/08/03 12:52:13;;;;;;;1.98;1.45;;;;;37.10;96442.00;;;;8346260;28;20644;-75
2022/08/03 12:56:18;;;;;;;1.40;1.40;;;;;37.20;96444.00;;;;8340644;28;20590;-75
2022/08/03 13:00:25;;;;;;;2.58;1.60;;;;;37.10;96436.00;;;;8342962;28;20637;-75
2022/08/03 13:04:36;;;;;;;1.55;1.55;;;;;37.30;96424.00;;;;8341986;28;20229;-76
2022/08/03 13:08:39;;;;;;;1.83;1.60;;;;;37.40;96441.00;;;;8343695;28;20613;-76
2022/08/03 13:12:47;;;;;;;1.80;1.70;;;;;37.10;96437.00;;;;8331173;28;20307;-74
2022/08/03 13:16:50;;;;;;;1.60;1.55;;;;;36.70;96429.00;;;;8325243;28;20228;-73
2022/08/03 13:20:55;;;;;;;1.67;1.60;;;;;36.50;96424.00;;;;8341830;28;20701;-74
2022/08/03 13:25:00;;;;;;;2.33;1.40;;;;;36.40;96422.00;;;;8341044;28;20225;-74
2022/08/03 13:29:03;;;;;;;1.50;1.40;;;;;36.70;96430.00;;;;8340617;28;20224;-73
2022/08/03 13:33:06;;;;;;;1.55;1.50;;;;;37.30;96419.00;;;;8335880;28;20248;-70
2022/08/03 13:37:11;;;;;;;2.53;1.80;;;;;38.20;96422.00;;;;8334502;28;20303;-72
2022/08/03 13:41:14;;;;;;;1.80;1.70;;;;;39.20;96420.00;;;;8340222;28;20266;-72
2022/08/03 13:45:19;;;;;;;2.85;1.50;;;;;40.10;96419.00;;;;8338214;28;20586;-72
2022/08/03 13:49:23;;;;;;;2.55;1.63;;;;;40.30;96412.00;;;;8342814;28;20325;-72
2022/08/03 13:53:27;;;;;;;1.60;1.60;;;;;40.80;96413.00;;;;8335570;28;20256;-73
2022/08/03 13:57:31;;;;;;;2.67;1.73;;;;;41.30;96416.00;;;;8344020;28;20256;-72
2022/08/03 14:01:54;;;;;;;3.05;1.65;;;;;41.70;96408.00;;;;8340778;28;20791;-75
2022/08/03 14:05:58;;;;;;;2.53;1.50;;;;;42.30;96408.00;;;;8340503;28;20308;-75
2022/08/03 14:10:02;;;;;;;3.05;1.45;;;;;42.30;96399.00;;;;8341446;28;20266;-75
2022/08/03 14:14:06;;;;;;;1.45;1.45;;;;;41.80;96403.00;;;;8340704;28;20331;-74
2022/08/03 14:18:10;;;;;;;2.95;1.40;;;;;41.70;96403.00;;;;8340924;28;20232;-75
2022/08/03 14:22:18;;;;;;;1.60;1.55;;;;;41.80;96390.00;;;;8337956;28;20263;-74
2022/08/03 14:26:22;;;;;;;1.55;1.50;;;;;41.10;96390.00;;;;8342328;28;20235;-74
2022/08/03 14:30:26;;;;;;;1.48;1.48;;;;;41.10;96390.00;;;;8339021;28;20247;-75
2022/08/03 14:34:29;;;;;;;1.42;1.40;;;;;41.50;96387.00;;;;8331298;28;20237;-75
2022/08/03 14:38:33;;;;;;;8.52;1.52;;;;;41.50;96394.00;;;;8342882;28;20232;-74
2022/08/03 14:42:38;;;;;;;1.50;1.40;;;;;41.50;96396.00;;;;8334190;28;20232;-74
2022/08/03 14:46:41;;;;;;;1.60;1.50;;;;;41.20;96394.00;;;;8337970;28;20316;-75
2022/08/03 14:50:45;;;;;;;1.60;1.50;;;;;40.90;96388.00;;;;8338303;28;20808;-74
2022/08/03 14:54:53;;;;;;;1.77;1.67;;;;;41.00;96377.00;;;;8340800;28;20220;-75
2022/08/03 14:58:58;;;;;;;6.63;1.83;;;;;40.60;96384.00;;;;8343011;28;20315;-75
2022/08/03 15:03:02;;;;;;;1.80;1.70;;;;;40.40;96385.00;;;;8344256;28;20263;-75
2022/08/03 15:07:05;;;;;;;1.75;1.42;;;;;40.50;96376.00;;;;8340467;28;20285;-72
2022/08/03 15:11:08;;;;;;;1.55;1.55;;;;;40.60;96375.00;;;;8339996;28;20314;-75
2022/08/03 15:15:13;;;;;;;2.75;1.42;;;;;40.80;96370.00;;;;8336246;28;20227;-74
2022/08/03 15:19:18;;;;;;;1.65;1.50;;;;;40.90;96367.00;;;;8337476;28;20747;-75
2022/08/03 15:23:41;;;;;;;1.70;1.60;;;;;40.20;96366.00;;;;8341682;28;20232;-77
2022/08/03 15:27:44;;;;;;;2.55;1.70;;;;;40.10;96361.00;;;;8329593;28;20315;-77
2022/08/03 15:32:08;;;;;;;1.40;1.40;;;;;40.30;96352.00;;;;8348990;28;21016;-77
2022/08/03 15:36:11;;;;;;;2.05;1.70;;;;;40.50;96355.00;;;;8348400;28;20271;-75
2022/08/03 15:40:15;;;;;;;1.60;1.50;;;;;40.60;96354.00;;;;8350445;28;20227;-74
2022/08/03 15:44:19;;;;;;;1.80;1.70;;;;;40.60;96348.00;;;;8342516;28;20228;-74
2022/08/03 15:48:24;;;;;;;1.50;1.50;;;;;40.60;96355.00;;;;8344852;28;20223;-74
2022/08/03 15:52:28;;;;;;;1.60;1.50;;;;;40.60;96360.00;;;;8347074;28;20873;-73
2022/08/03 15:56:31;;;;;;;3.33;1.60;;;;;40.50;96360.00;;;;8347404;28;20233;-72
2022/08/03 16:00:36;;;;;;;2.22;1.48;;;;;40.40;96356.00;;;;8350093;28;20228;-75
2022/08/03 16:04:41;;;;;;;2.63;1.50;;;;;40.00;96347.00;;;;8346636;28;20712;-74
2022/08/03 16:08:44;;;;;;;4.72;1.70;;;;;40.00;96344.00;;;;8348394;28;20236;-75
2022/08/03 16:12:48;;;;;;;1.60;1.50;;;;;40.10;96346.00;;;;8349586;28;20212;-73
2022/08/03 16:16:51;;;;;;;3.13;1.60;;;;;40.20;96348.00;;;;8341076;28;20220;-73
2022/08/03 16:20:58;;;;;;;1.52;1.42;;;;;40.10;96345.00;;;;8344443;28;20225;-81
2022/08/03 16:25:02;;;;;;;3.60;1.83;;;;;40.10;96344.00;;;;8337462;28;20220;-78
2022/08/03 16:29:05;;;;;;;1.50;1.50;;;;;40.30;96346.00;;;;8339282;28;20225;-78
2022/08/03 16:33:25;;;;;;;1.70;1.40;;;;;40.50;96353.00;;;;8339153;28;20217;-79
2022/08/03 16:37:30;;;;;;;1.80;1.77;;;;;40.50;96341.00;;;;8341394;28;20228;-78
2022/08/03 16:41:41;;;;;;;1.58;1.58;;;;;40.60;96350.00;;;;8338523;28;20318;-78
2022/08/03 16:46:03;;;;;;;1.60;1.55;;;;;40.60;96349.00;;;;8336096;28;20236;-76
2022/08/03 16:50:08;;;;;;;1.30;1.30;;;;;40.50;96339.00;;;;8338972;28;20228;-80
2022/08/03 16:54:21;;;;;;;10.95;1.63;;;;;40.50;96344.00;;;;8319287;28;21106;-78
2022/08/03 16:58:29;;;;;;;1.55;1.50;;;;;40.70;96346.00;;;;8335112;28;21012;-79
2022/08/03 17:02:48;;;;;;;1.38;1.30;;;;;40.90;96344.00;;;;8340100;28;20586;-81
2022/08/03 17:06:51;;;;;;;1.60;1.50;;;;;41.20;96345.00;;;;8338187;28;20230;-79
2022/08/03 17:10:56;;;;;;;1.45;1.45;;;;;41.40;96349.00;;;;8338846;28;20404;-80
2022/08/03 17:14:59;;;;;;;1.63;1.52;;;;;41.50;96346.00;;;;8342262;28;20264;-79
2022/08/03 17:19:05;;;;;;;3.95;1.50;;;;;41.60;96346.00;;;;8344026;28;20224;-80
2022/08/03 17:23:22;;;;;;;3.53;1.40;;;;;41.40;96345.00;;;;8345504;28;20251;-79
2022/08/03 17:27:39;;;;;;;1.58;1.58;;;;;41.40;96356.00;;;;8341091;28;20623;-79
2022/08/03 17:32:04;;;;;;;1.50;1.40;;;;;41.40;96357.00;;;;8344805;28;20232;-77
2022/08/03 17:36:19;;;;;;;1.67;1.48;;;;;41.10;96365.00;;;;8344062;28;20239;-78
2022/08/03 17:40:24;;;;;;;6.35;1.40;;;;;40.80;96355.00;;;;8343183;28;20308;-76
2022/08/03 17:44:30;;;;;;;1.20;1.20;;;;;40.60;96357.00;;;;8344035;28;20243;-77
2022/08/03 17:48:48;;;;;;;3.30;1.63;;;;;40.10;96358.00;;;;8342236;28;20745;-77
2022/08/03 17:52:52;;;;;;;1.60;1.60;;;;;39.90;96357.00;;;;8332732;28;20307;-76
2022/08/03 17:57:05;;;;;;;1.70;1.60;;;;;39.40;96360.00;;;;8339220;28;20243;-74
2022/08/03 18:06:09;;;;;;;4.30;1.60;;;;;37.10;96370.00;;;;8336323;28;20274;-73
2022/08/03 18:10:19;;;;;;;1.98;1.40;;;;;36.10;96369.00;;;;8340512;28;21920;-73
2022/08/03 18:14:33;;;;;;;6.43;1.60;;;;;35.30;96377.00;;;;8337776;28;20303;-71
2022/08/03 18:18:45;;;;;;;4.65;1.80;;;;;34.50;96375.00;;;;8339318;28;20256;-75
2022/08/03 18:22:53;;;;;;;3.47;1.52;;;;;33.90;96370.00;;;;8338451;28;20240;-74
2022/08/03 18:26:57;;;;;;;3.05;1.65;;;;;33.50;96372.00;;;;8345192;28;20230;-73
2022/08/03 18:31:01;;;;;;;4.40;1.80;;;;;33.00;96369.00;;;;8347944;28;20311;-74
2022/08/03 18:35:11;;;;;;;1.52;1.52;;;;;32.60;96369.00;;;;8344690;28;20220;-74
2022/08/03 18:39:37;;;;;;;3.25;1.50;;;;;32.20;96371.00;;;;8342899;28;20759;-74
2022/08/03 18:43:52;;;;;;;4.60;1.73;;;;;31.80;96384.00;;;;8343458;28;20231;-74
2022/08/03 18:48:19;;;;;;;3.30;1.83;;;;;31.40;96376.00;;;;8332847;28;20216;-74
2022/08/03 18:52:37;;;;;;;2.63;1.90;;;;;31.10;96376.00;;;;8332969;28;20240;-74
2022/08/03 18:56:53;;;;;;;3.15;1.70;;;;;30.80;96371.00;;;;8331354;28;20260;-74
2022/08/03 19:01:04;;;;;;;1.70;1.60;;;;;30.50;96383.00;;;;8334765;28;20229;-74
2022/08/03 19:05:31;;;;;;;3.65;1.65;;;;;30.30;96381.00;;;;8337324;28;20294;-75
2022/08/03 19:09:59;;;;;;;3.70;1.70;;;;;30.00;96380.00;;;;8338147;28;20228;-74
2022/08/03 19:14:08;;;;;;;4.57;1.80;;;;;29.70;96384.00;;;;8339738;28;20216;-75
2022/08/03 19:18:16;;;;;;;1.83;1.73;;;;;29.40;96389.00;;;;8341688;28;20343;-74
2022/08/03 19:22:21;;;;;;;1.95;1.85;;;;;28.90;96389.00;;;;8338846;28;20259;-74
2022/08/03 19:26:27;;;;;;;4.00;1.67;;;;;28.40;96386.00;;;;8338898;28;20930;-74
2022/08/03 19:30:38;;;;;;;2.47;1.80;;;;;28.00;96395.00;;;;8342391;28;20280;-74
2022/08/03 19:34:42;;;;;;;2.20;1.67;;;;;27.50;96398.00;;;;8340475;28;20231;-74
2022/08/03 19:38:51;;;;;;;3.00;1.50;;;;;27.10;96397.00;;;;8340265;28;20266;-75
2022/08/03 19:43:00;;;;;;;1.70;1.60;;;;;26.70;96385.00;;;;8339985;28;20236;-75
2022/08/03 19:47:10;;;;;;;2.58;1.55;;;;;26.40;96393.00;;;;8335492;28;20268;-74
2022/08/03 19:51:20;;;;;;;1.90;1.60;;;;;26.00;96386.00;;;;8341769;28;20351;-75
2022/08/03 19:55:45;;;;;;;2.28;1.92;;;;;25.80;96378.00;;;;8341664;28;20547;-74
2022/08/03 19:59:54;;;;;;;4.38;1.60;;;;;25.50;96385.00;;;;8334015;28;20241;-74
2022/08/03 20:03:57;;;;;;;2.42;1.63;;;;;25.30;96383.00;;;;8341146;28;20319;-74
2022/08/03 20:08:06;;;;;;;4.55;2.03;;;;;25.10;96377.00;;;;8337497;28;20227;-75
2022/08/03 20:12:11;;;;;;;4.57;1.67;;;;;24.90;96380.00;;;;8344072;28;20232;-76
2022/08/03 20:16:16;;;;;;;4.00;1.92;;;;;24.70;96376.00;;;;8334840;28;21489;-75
2022/08/03 20:20:22;;;;;;;2.00;1.83;;;;;24.50;96381.00;;;;8342103;28;20246;-72
2022/08/03 20:24:27;;;;;;;1.80;1.70;;;;;24.30;96382.00;;;;8341195;28;21347;-72
2022/08/03 20:28:35;;;;;;;2.28;2.10;;;;;24.20;96378.00;;;;8346583;28;20896;-71
2022/08/03 20:32:54;;;;;;;3.55;2.08;;;;;24.10;96376.00;;;;8339528;28;20228;-70
2022/08/03 20:36:57;;;;;;;3.22;1.73;;;;;24.00;96378.00;;;;8347419;28;20258;-71
2022/08/03 20:41:02;;;;;;;2.03;1.92;;;;;23.90;96378.00;;;;8348819;28;20769;-72
2022/08/03 20:45:06;;;;;;;2.17;2.08;;;;;23.80;96374.00;;;;8349972;28;20239;-71
2022/08/03 20:49:20;;;;;;;4.82;1.92;;;;;23.70;96383.00;;;;8336916;28;20247;-71
2022/08/03 20:53:26;;;;;;;4.75;2.10;;;;;23.60;96372.00;;;;8345629;28;20303;-71
2022/08/03 20:57:50;;;;;;;3.20;1.83;;;;;23.50;96377.00;;;;8348121;28;20239;-71